Archival Weather

Salzburg

Salzburg, Austria (LOWS)

Report from: Thursday, September 21, 2023 10:20 PM CEST
Current time: Saturday, March 2, 2024 9:56 AM CET

Current weather – Weather history – Daily summaries
Weather forecast

Temperature19.0°C (66.2°F)
Dew point12.0°C (53.6°F)
Winds 7 kts (3.6 m/s, 8.1 mph) South-Southeast (150°)
Clouds Sky clear
Altimeter29.56 in.Hg (1001 mB)
Relative humidity64 %
Density altitude1,081 ft. (330 m)
Remarks Ceiling and visibility OK
No significant changes expected in the next two hours
Flight conditions Visual Meteorological Conditions
Raw dataLOWS 212020Z 15007KT CAVOK 19/12 Q1001 NOSIG
An error has occurred. This application may no longer respond until reloaded. Reload 🗙